Time;durP1;ratioP1;P1;durP2;ratioP2;P2;SDS_P1;SDS_P2;PMS_P1;PMS_P2;Temp;Humidity;BMP_temperature;BMP_pressure;BME280_temperature;BME280_humidity;BME280_pressure;Samples;Min_cycle;Max_cycle;Signal;HPM_P1;HPM_P2
2022/11/14 00:02:43;;;;;;;119.63;56.55;;;8.50;99.90;;;;;;5076638;28;20063;-75
2022/11/14 00:05:30;;;;;;;174.75;81.93;;;9.10;99.90;;;;;;5077063;28;20045;-72
2022/11/14 00:08:20;;;;;;;145.13;77.22;;;7.80;99.90;;;;;;5077045;28;20475;-73
2022/11/14 00:11:08;;;;;;;112.00;52.92;;;8.90;99.90;;;;;;5076185;28;20033;-75
2022/11/14 00:13:54;;;;;;;123.18;54.50;;;7.70;99.90;;;;;;5077680;28;20486;-75
2022/11/14 00:16:40;;;;;;;157.63;58.55;;;7.70;99.90;;;;;;5075954;28;20045;-75
2022/11/14 00:19:26;;;;;;;116.28;51.60;;;7.80;99.90;;;;;;5076999;28;20055;-76
2022/11/14 00:22:12;;;;;;;158.40;60.33;;;7.80;99.90;;;;;;5058331;28;20048;-77
2022/11/14 00:24:58;;;;;;;143.00;61.67;;;9.10;99.90;;;;;;5076918;28;20045;-77
2022/11/14 00:27:44;;;;;;;136.40;54.60;;;7.90;99.90;;;;;;5062534;28;20048;-74
2022/11/14 00:30:30;;;;;;;100.05;46.53;;;9.60;99.90;;;;;;5075864;28;20371;-76
2022/11/14 00:33:19;;;;;;;103.82;48.53;;;7.80;99.90;;;;;;5076654;28;20047;-76
2022/11/14 00:36:06;;;;;;;90.70;44.50;;;8.00;99.90;;;;;;5076119;28;20041;-72
2022/11/14 00:38:53;;;;;;;79.65;42.20;;;7.80;99.90;;;;;;5045607;28;20041;-73
2022/11/14 00:41:40;;;;;;;78.47;42.83;;;7.80;99.90;;;;;;5077028;28;20051;-74
2022/11/14 00:44:26;;;;;;;76.82;41.58;;;8.10;99.90;;;;;;5075350;28;20067;-75
2022/11/14 00:47:12;;;;;;;90.88;43.00;;;8.30;99.90;;;;;;5076264;28;20049;-75
2022/11/14 00:49:58;;;;;;;99.25;47.80;;;7.60;99.90;;;;;;5057676;28;20059;-72
2022/11/14 00:52:44;;;;;;;80.15;41.60;;;7.60;99.90;;;;;;5076966;28;20040;-74
2022/11/14 00:55:30;;;;;;;118.75;49.08;;;8.60;99.90;;;;;;5057731;28;20068;-74
2022/11/14 00:58:17;;;;;;;127.65;54.55;;;7.50;99.90;;;;;;5076738;28;20052;-72
2022/11/14 01:01:03;;;;;;;273.80;81.05;;;7.50;99.90;;;;;;5061657;28;20052;-75
2022/11/14 01:03:50;;;;;;;202.88;70.45;;;7.50;99.90;;;;;;5075233;28;20040;-72
2022/11/14 01:06:36;;;;;;;250.90;77.63;;;7.50;99.90;;;;;;5076464;28;20332;-75
2022/11/14 01:09:22;;;;;;;218.95;71.82;;;7.50;99.90;;;;;;5074961;28;20063;-75
2022/11/14 01:12:08;;;;;;;253.52;78.60;;;9.60;99.90;;;;;;5075761;28;20037;-73
2022/11/14 01:14:54;;;;;;;295.30;79.38;;;7.90;99.90;;;;;;5044886;28;20055;-72
2022/11/14 01:17:40;;;;;;;312.83;84.90;;;7.90;99.90;;;;;;5075137;28;20044;-74
2022/11/14 01:20:26;;;;;;;290.00;82.38;;;7.90;99.90;;;;;;5076063;28;20067;-75
2022/11/14 01:23:14;;;;;;;348.15;92.85;;;8.00;99.90;;;;;;5043427;28;20049;-75
2022/11/14 01:26:06;;;;;;;247.60;77.85;;;8.10;99.90;;;;;;5075509;28;20037;-73
2022/11/14 01:28:52;;;;;;;261.75;84.43;;;8.60;99.90;;;;;;5074720;28;20071;-76
2022/11/14 01:31:38;;;;;;;249.77;80.50;;;8.90;99.90;;;;;;5076176;28;20041;-75
2022/11/14 01:34:25;;;;;;;240.93;82.07;;;9.10;99.90;;;;;;5075979;28;20063;-72
2022/11/14 01:37:11;;;;;;;239.15;75.80;;;8.90;99.90;;;;;;5074513;28;20048;-73
2022/11/14 01:39:57;;;;;;;292.45;88.78;;;8.40;99.90;;;;;;5060993;28;20455;-74
2022/11/14 01:43:17;;;;;;;508.17;115.18;;;8.50;99.90;;;;;;5074584;28;20045;-75
2022/11/14 01:46:15;;;;;;;247.60;86.50;;;8.50;99.90;;;;;;5075143;28;20360;-73
2022/11/14 01:49:16;;;;;;;293.65;94.95;;;8.50;99.90;;;;;;5059427;28;20048;-72
2022/11/14 01:52:14;;;;;;;225.93;87.78;;;8.50;99.90;;;;;;5074956;28;20049;-74
2022/11/14 01:55:04;;;;;;;403.02;114.90;;;8.60;99.90;;;;;;5074932;28;20053;-75
2022/11/14 01:57:50;;;;;;;437.80;118.13;;;10.00;99.90;;;;;;5075315;28;20048;-75
2022/11/14 02:00:36;;;;;;;258.35;91.65;;;8.60;99.90;;;;;;5075424;28;20040;-73
2022/11/14 02:03:23;;;;;;;354.20;107.60;;;8.60;99.90;;;;;;5074578;28;20063;-73
2022/11/14 02:06:13;;;;;;;297.42;95.68;;;8.60;99.90;;;;;;5075517;28;20037;-74
2022/11/14 02:09:03;;;;;;;185.48;77.28;;;8.60;99.90;;;;;;5056925;28;20045;-75
2022/11/14 02:11:50;;;;;;;192.18;77.72;;;8.70;99.90;;;;;;5075392;28;20047;-75
2022/11/14 02:14:37;;;;;;;239.38;86.28;;;8.70;99.90;;;;;;5075118;28;20355;-75
2022/11/14 02:17:24;;;;;;;173.68;73.68;;;8.80;99.90;;;;;;5073940;28;20036;-75
2022/11/14 02:20:23;;;;;;;164.20;67.57;;;8.80;99.90;;;;;;5075100;28;20471;-73
2022/11/14 02:23:10;;;;;;;154.93;67.68;;;9.80;99.90;;;;;;5072862;28;20048;-74
2022/11/14 02:25:56;;;;;;;186.05;72.55;;;8.90;99.90;;;;;;5074917;28;20040;-74
2022/11/14 02:28:42;;;;;;;155.85;57.63;;;8.90;99.90;;;;;;5060355;28;20063;-75
2022/11/14 02:31:28;;;;;;;157.25;53.60;;;9.00;99.90;;;;;;5057705;28;20055;-73
2022/11/14 02:34:18;;;;;;;146.80;46.25;;;10.10;99.90;;;;;;5060210;28;20044;-75
2022/11/14 02:37:05;;;;;;;154.82;46.78;;;10.70;99.90;;;;;;5056430;28;20055;-73
2022/11/14 02:39:51;;;;;;;149.07;45.30;;;10.10;99.90;;;;;;5074480;28;20037;-73
2022/11/14 02:42:38;;;;;;;138.68;42.90;;;9.30;99.90;;;;;;5073552;28;20033;-75
2022/11/14 02:45:24;;;;;;;133.23;41.75;;;9.30;99.90;;;;;;5043001;28;20071;-75
2022/11/14 02:48:10;;;;;;;120.35;38.70;;;9.30;99.90;;;;;;5057220;28;20051;-74
2022/11/14 02:50:57;;;;;;;103.75;36.45;;;10.40;99.90;;;;;;5073624;28;20348;-74
2022/11/14 02:53:43;;;;;;;115.25;37.38;;;9.40;99.90;;;;;;5074728;28;20045;-75
2022/11/14 02:56:29;;;;;;;101.32;32.92;;;9.60;99.90;;;;;;5073122;28;20055;-75
2022/11/14 02:59:15;;;;;;;95.15;33.15;;;10.10;99.90;;;;;;5074873;28;20041;-74
2022/11/14 03:02:01;;;;;;;115.47;33.42;;;10.00;99.90;;;;;;5074515;28;20048;-74
2022/11/14 03:04:47;;;;;;;104.22;33.83;;;9.30;99.90;;;;;;5074229;28;20044;-73
2022/11/14 03:07:33;;;;;;;96.82;34.60;;;9.20;99.90;;;;;;5074494;28;20049;-74
2022/11/14 03:10:20;;;;;;;117.97;34.38;;;11.10;99.90;;;;;;5073946;28;20045;-73
2022/11/14 03:13:06;;;;;;;106.70;36.08;;;10.20;99.90;;;;;;5059848;28;20037;-72
2022/11/14 03:15:52;;;;;;;92.80;34.53;;;9.10;99.90;;;;;;5056213;28;20150;-73
2022/11/14 03:18:38;;;;;;;101.47;34.58;;;9.80;99.90;;;;;;5057253;28;20056;-72
2022/11/14 03:21:24;;;;;;;109.93;33.75;;;9.10;99.90;;;;;;5074717;28;20044;-75
2022/11/14 03:24:11;;;;;;;79.30;30.17;;;9.30;99.90;;;;;;5073435;28;20044;-74
2022/11/14 03:26:57;;;;;;;73.45;27.27;;;9.20;99.90;;;;;;5074460;28;20456;-74
2022/11/14 03:29:43;;;;;;;64.43;25.63;;;9.20;99.90;;;;;;5073170;28;20044;-74
2022/11/14 03:32:29;;;;;;;51.65;23.02;;;9.10;99.90;;;;;;5074422;28;20363;-75
2022/11/14 03:35:15;;;;;;;66.10;24.27;;;10.20;99.90;;;;;;5077919;28;20053;-75
2022/11/14 03:38:00;;;;;;;61.22;23.25;;;9.20;99.90;;;;;;5077637;28;20041;-74
2022/11/14 03:40:46;;;;;;;64.75;23.45;;;10.00;99.90;;;;;;5077573;28;20064;-73
2022/11/14 03:43:33;;;;;;;53.85;23.52;;;9.20;99.90;;;;;;5076794;28;20052;-75
2022/11/14 03:46:20;;;;;;;43.00;21.17;;;9.10;99.90;;;;;;5078128;28;20351;-73
2022/11/14 03:49:06;;;;;;;50.15;21.08;;;9.20;99.90;;;;;;5076900;28;20375;-73
2022/11/14 03:51:52;;;;;;;45.97;20.23;;;9.20;99.90;;;;;;5077901;28;20037;-73
2022/11/14 03:54:38;;;;;;;51.65;20.52;;;9.10;99.90;;;;;;5077398;28;20037;-76
2022/11/14 03:57:24;;;;;;;53.38;21.45;;;9.10;99.90;;;;;;5076335;28;20048;-74
2022/11/14 04:00:10;;;;;;;57.22;21.70;;;9.10;99.90;;;;;;5078008;28;20048;-75
2022/11/14 04:02:56;;;;;;;52.45;20.27;;;9.10;99.90;;;;;;5076736;28;20049;-76
2022/11/14 04:05:44;;;;;;;59.08;22.20;;;9.10;99.90;;;;;;5077714;28;20036;-72
2022/11/14 04:08:30;;;;;;;56.40;21.70;;;11.10;99.90;;;;;;5077639;28;20040;-75
2022/11/14 04:11:18;;;;;;;58.35;22.33;;;9.80;99.90;;;;;;5077382;28;20051;-73
2022/11/14 04:14:04;;;;;;;67.82;22.48;;;9.20;99.90;;;;;;5077419;28;20045;-75
2022/11/14 04:16:50;;;;;;;76.45;23.02;;;9.20;99.90;;;;;;5076564;28;20478;-76
2022/11/14 04:19:36;;;;;;;60.38;23.63;;;10.30;99.90;;;;;;5077472;28;20036;-74
2022/11/14 04:22:22;;;;;;;62.42;24.02;;;9.20;99.90;;;;;;5076134;28;20045;-74
2022/11/14 04:25:08;;;;;;;54.65;20.85;;;9.40;99.90;;;;;;5077476;28;20052;-76
2022/11/14 04:27:54;;;;;;;61.03;19.95;;;9.30;99.90;;;;;;5059433;28;20049;-76
2022/11/14 04:30:41;;;;;;;53.10;20.20;;;9.70;99.90;;;;;;5075954;28;20040;-74
2022/11/14 04:33:27;;;;;;;58.33;20.83;;;10.00;99.90;;;;;;5076715;28;20052;-75
2022/11/14 04:36:13;;;;;;;73.95;23.15;;;9.20;99.90;;;;;;5076041;28;20063;-74
2022/11/14 04:38:59;;;;;;;83.95;23.00;;;9.20;99.90;;;;;;5077299;28;20037;-75
2022/11/14 04:41:45;;;;;;;83.70;22.83;;;9.20;99.90;;;;;;5076837;28;20063;-75
2022/11/14 04:44:31;;;;;;;79.78;22.23;;;9.20;99.90;;;;;;5075933;28;20037;-74
2022/11/14 04:47:17;;;;;;;83.35;22.85;;;10.90;99.90;;;;;;5061717;28;20447;-75
2022/11/14 04:50:04;;;;;;;75.20;22.13;;;9.20;99.90;;;;;;5075641;28;20051;-74
2022/11/14 04:52:52;;;;;;;77.85;20.80;;;9.20;99.90;;;;;;5061697;28;20475;-74
2022/11/14 04:55:38;;;;;;;73.07;21.98;;;9.20;99.90;;;;;;5075463;28;20067;-75
2022/11/14 04:58:24;;;;;;;76.53;22.67;;;9.20;99.90;;;;;;5059316;28;20051;-73
2022/11/14 05:01:12;;;;;;;101.22;26.77;;;10.70;99.90;;;;;;5076703;28;20048;-75
2022/11/14 05:03:59;;;;;;;87.88;22.67;;;9.20;99.90;;;;;;5075298;28;20033;-74
2022/11/14 05:06:45;;;;;;;99.10;25.25;;;9.30;99.90;;;;;;5075837;28;20045;-72
2022/11/14 05:09:31;;;;;;;104.20;26.10;;;9.50;99.90;;;;;;5074917;28;20408;-74
2022/11/14 05:12:17;;;;;;;113.18;27.20;;;9.70;99.90;;;;;;5076251;28;20037;-72
2022/11/14 05:15:03;;;;;;;106.15;25.92;;;11.20;99.90;;;;;;5076185;28;20059;-72
2022/11/14 05:17:49;;;;;;;126.32;28.75;;;9.50;99.90;;;;;;5060431;28;20049;-73
2022/11/14 05:20:35;;;;;;;130.57;28.85;;;10.90;99.90;;;;;;5075742;28;20048;-75
2022/11/14 05:23:22;;;;;;;124.60;28.80;;;9.60;99.90;;;;;;5074756;28;20040;-75
2022/11/14 05:26:14;;;;;;;139.33;28.50;;;9.70;99.90;;;;;;5075528;28;20052;-75
2022/11/14 05:29:00;;;;;;;144.30;28.85;;;9.70;99.90;;;;;;5060361;28;20582;-72
2022/11/14 05:31:46;;;;;;;129.30;29.60;;;9.80;99.90;;;;;;5075673;28;20410;-72
2022/11/14 05:34:33;;;;;;;146.18;32.75;;;9.80;99.90;;;;;;5075566;28;20055;-73
2022/11/14 05:37:18;;;;;;;143.68;30.60;;;9.80;99.90;;;;;;5074640;28;20048;-75
2022/11/14 05:40:05;;;;;;;147.20;30.88;;;10.00;99.90;;;;;;5075622;28;20052;-74
2022/11/14 05:42:54;;;;;;;150.02;30.73;;;10.00;99.90;;;;;;5059769;28;20044;-72
2022/11/14 05:45:40;;;;;;;131.95;30.00;;;10.50;99.90;;;;;;5075260;28;20040;-75
2022/11/14 05:48:26;;;;;;;145.32;29.45;;;10.60;99.90;;;;;;5058180;28;20462;-74
2022/11/14 05:51:13;;;;;;;148.77;28.65;;;10.10;99.90;;;;;;5075180;28;20478;-74
2022/11/14 05:53:59;;;;;;;124.55;27.55;;;10.10;99.90;;;;;;5075700;28;20044;-75
2022/11/14 05:56:45;;;;;;;136.63;28.80;;;11.40;99.90;;;;;;5059110;28;20074;-73
2022/11/14 05:59:31;;;;;;;136.70;29.10;;;10.10;99.90;;;;;;5075133;28;20044;-72
2022/11/14 06:02:18;;;;;;;140.52;29.40;;;10.10;99.90;;;;;;5074004;28;20047;-72
2022/11/14 06:05:04;;;;;;;171.98;30.00;;;10.10;99.90;;;;;;5043869;28;20052;-75
2022/11/14 06:07:55;;;;;;;136.85;28.35;;;10.10;99.90;;;;;;5057286;28;20118;-73
2022/11/14 06:10:41;;;;;;;111.82;25.80;;;10.30;99.90;;;;;;5073890;28;20052;-73
2022/11/14 06:13:27;;;;;;;114.05;23.77;;;10.00;99.90;;;;;;5057890;28;20048;-73
2022/11/14 06:16:18;;;;;;;102.40;23.20;;;10.00;99.90;;;;;;5056445;28;20040;-74
2022/11/14 06:19:04;;;;;;;111.18;24.92;;;10.10;99.90;;;;;;5075166;28;20483;-75
2022/11/14 06:21:50;;;;;;;143.95;23.60;;;9.90;99.90;;;;;;5059913;28;20039;-77
2022/11/14 06:24:37;;;;;;;94.85;23.10;;;11.00;99.90;;;;;;5057320;28;20059;-72
2022/11/14 06:27:23;;;;;;;106.82;22.50;;;10.60;99.90;;;;;;5074721;28;20044;-74
2022/11/14 06:30:09;;;;;;;105.00;23.13;;;9.70;99.90;;;;;;5073910;28;20367;-73
2022/11/14 06:32:57;;;;;;;98.22;24.92;;;9.60;99.90;;;;;;5074585;28;20048;-75
2022/11/14 06:35:43;;;;;;;100.20;25.13;;;9.50;99.90;;;;;;5073831;28;20040;-76
2022/11/14 06:38:35;;;;;;;105.03;25.80;;;10.00;99.90;;;;;;5059958;28;20045;-72
2022/11/14 06:41:22;;;;;;;127.85;26.98;;;9.40;99.90;;;;;;5074729;28;20337;-72
2022/11/14 06:44:08;;;;;;;121.55;25.40;;;9.70;99.90;;;;;;5073626;28;20056;-75
2022/11/14 06:46:55;;;;;;;93.22;23.77;;;10.20;99.90;;;;;;5074797;28;20040;-75
2022/11/14 06:49:41;;;;;;;97.65;24.20;;;9.80;99.90;;;;;;5058805;28;20056;-74
2022/11/14 06:52:28;;;;;;;110.97;23.90;;;9.40;99.90;;;;;;5057426;28;20045;-75
2022/11/14 06:55:14;;;;;;;130.70;27.50;;;9.10;99.90;;;;;;5074172;28;20372;-74
2022/11/14 06:58:02;;;;;;;124.25;26.75;;;9.00;99.90;;;;;;5075078;28;20056;-72
2022/11/14 07:00:48;;;;;;;124.22;24.95;;;10.40;99.90;;;;;;5074560;28;20045;-75
2022/11/14 07:03:35;;;;;;;141.57;28.17;;;8.90;99.90;;;;;;5059163;28;20055;-75
2022/11/14 07:06:23;;;;;;;152.63;25.27;;;8.90;99.90;;;;;;5074738;28;20452;-76
2022/11/14 07:09:10;;;;;;;109.22;26.45;;;10.00;99.90;;;;;;5075731;28;20047;-74
2022/11/14 07:11:56;;;;;;;115.93;26.08;;;8.80;99.90;;;;;;5078665;28;20040;-74
2022/11/14 07:14:42;;;;;;;157.70;27.55;;;8.70;99.90;;;;;;5078298;28;20051;-74
2022/11/14 07:17:28;;;;;;;128.15;26.17;;;10.10;99.90;;;;;;5077167;28;20159;-77
2022/11/14 07:20:19;;;;;;;174.43;29.95;;;8.70;99.90;;;;;;5078306;28;20059;-75
2022/11/14 07:23:05;;;;;;;122.20;25.92;;;8.70;99.90;;;;;;5076149;28;20068;-74
2022/11/14 07:25:51;;;;;;;133.50;27.05;;;9.00;99.90;;;;;;5077998;28;20044;-74
2022/11/14 07:28:40;;;;;;;275.58;35.13;;;9.10;99.90;;;;;;5077951;28;20040;-74
2022/11/14 07:31:26;;;;;;;184.93;34.25;;;9.40;99.90;;;;;;5060246;28;20059;-76
2022/11/14 07:34:12;;;;;;;323.48;33.83;;;8.70;99.90;;;;;;5077853;28;20055;-75
2022/11/14 07:36:58;;;;;;;217.88;35.10;;;8.80;99.90;;;;;;5076498;28;20048;-75
2022/11/14 07:39:47;;;;;;;330.02;38.95;;;8.80;99.90;;;;;;5077601;28;20059;-75
2022/11/14 07:42:36;;;;;;;447.02;41.22;;;8.90;99.90;;;;;;5045664;28;20048;-73
2022/11/14 07:45:22;;;;;;;271.75;36.28;;;8.90;99.90;;;;;;5062996;28;20459;-74
2022/11/14 07:48:08;;;;;;;321.88;35.97;;;9.40;99.90;;;;;;5058754;28;20056;-76
2022/11/14 07:51:02;;;;;;;286.63;34.92;;;8.90;99.90;;;;;;5076054;28;20041;-74
2022/11/14 07:53:51;;;;;;;249.57;31.67;;;9.60;99.90;;;;;;5077087;28;20036;-73
2022/11/14 07:56:37;;;;;;;174.52;32.67;;;10.10;99.90;;;;;;5058025;28;20059;-72
2022/11/14 07:59:24;;;;;;;261.58;37.47;;;9.10;99.90;;;;;;5059551;28;20060;-72
2022/11/14 08:02:14;;;;;;;197.80;34.45;;;9.20;99.90;;;;;;5061038;28;20053;-73
2022/11/14 08:05:00;;;;;;;211.77;34.90;;;9.30;99.90;;;;;;5076700;28;20048;-72
2022/11/14 08:07:55;;;;;;;302.45;35.70;;;10.80;99.90;;;;;;5076669;28;20471;-74
2022/11/14 08:10:43;;;;;;;395.25;41.70;;;10.00;99.90;;;;;;5074976;28;20368;-73
2022/11/14 08:13:30;;;;;;;375.77;40.92;;;9.50;99.90;;;;;;5076712;28;20043;-73
2022/11/14 08:16:18;;;;;;;239.15;38.70;;;9.50;99.90;;;;;;5058141;28;20067;-73
2022/11/14 08:19:05;;;;;;;322.50;45.80;;;9.60;99.90;;;;;;5076348;28;20055;-73
2022/11/14 08:21:51;;;;;;;290.75;40.55;;;9.60;99.90;;;;;;5075966;28;20475;-72
2022/11/14 08:24:36;;;;;;;302.17;39.45;;;9.80;99.90;;;;;;5076807;28;20381;-72
2022/11/14 08:27:23;;;;;;;442.20;43.17;;;9.90;99.90;;;;;;5076360;28;20037;-71
2022/11/14 08:30:09;;;;;;;420.25;41.78;;;10.70;99.90;;;;;;5075326;28;20040;-71
2022/11/14 08:32:56;;;;;;;244.63;44.83;;;10.00;99.90;;;;;;5076153;28;20045;-71
2022/11/14 08:35:42;;;;;;;196.48;37.35;;;10.10;99.90;;;;;;5075247;28;20052;-71
2022/11/14 08:38:29;;;;;;;144.63;29.20;;;10.30;99.90;;;;;;5076248;28;20454;-71
2022/11/14 08:41:15;;;;;;;140.38;29.45;;;10.30;99.90;;;;;;5076177;28;20043;-71
2022/11/14 08:44:01;;;;;;;132.98;29.02;;;10.40;99.90;;;;;;5075005;28;20479;-73
2022/11/14 08:46:48;;;;;;;135.13;28.00;;;10.70;99.90;;;;;;5075699;28;20471;-75
2022/11/14 08:49:34;;;;;;;136.52;28.70;;;10.50;99.90;;;;;;5075020;28;20071;-74
2022/11/14 08:52:20;;;;;;;173.60;31.73;;;11.20;99.90;;;;;;5076005;28;20052;-73
2022/11/14 08:55:07;;;;;;;201.82;32.90;;;11.30;99.90;;;;;;5075637;28;20127;-72
2022/11/14 08:57:53;;;;;;;145.93;30.38;;;10.80;99.90;;;;;;5075827;28;20045;-72
2022/11/14 09:00:40;;;;;;;124.35;27.45;;;10.90;99.90;;;;;;5075624;28;20036;-75
2022/11/14 09:03:26;;;;;;;123.57;26.85;;;11.00;99.90;;;;;;5056975;28;20114;-75
2022/11/14 09:06:12;;;;;;;121.72;27.15;;;11.10;99.90;;;;;;5076077;28;20459;-76
2022/11/14 09:08:58;;;;;;;119.10;26.40;;;11.10;99.90;;;;;;5074484;28;20370;-74
2022/11/14 09:11:44;;;;;;;136.57;27.20;;;11.10;99.90;;;;;;5060818;28;20049;-73
2022/11/14 09:14:32;;;;;;;96.32;24.98;;;11.20;99.90;;;;;;5057626;28;20055;-74
2022/11/14 09:17:18;;;;;;;106.43;25.40;;;11.20;99.90;;;;;;5074397;28;20506;-76
2022/11/14 09:20:05;;;;;;;114.88;26.55;;;11.30;99.90;;;;;;5075266;28;20044;-74
2022/11/14 09:22:52;;;;;;;95.43;24.55;;;11.30;99.90;;;;;;5059324;28;20055;-75
2022/11/14 09:25:38;;;;;;;85.25;23.52;;;11.40;99.90;;;;;;5060839;28;20041;-73
2022/11/14 09:28:24;;;;;;;77.13;23.85;;;11.50;99.90;;;;;;5074982;28;20040;-75
2022/11/14 09:31:12;;;;;;;75.60;22.85;;;11.50;99.90;;;;;;5073797;28;20041;-75
2022/11/14 09:33:57;;;;;;;73.50;23.17;;;11.60;99.90;;;;;;5075073;28;20049;-73
2022/11/14 09:36:43;;;;;;;67.45;21.98;;;11.60;99.90;;;;;;5059137;28;20036;-73
2022/11/14 09:39:29;;;;;;;63.40;20.63;;;11.70;99.90;;;;;;5074934;28;20040;-75
2022/11/14 09:42:34;;;;;;;66.95;22.00;;;11.70;99.90;;;;;;5073912;28;20044;-74
2022/11/14 09:45:20;;;;;;;64.20;21.77;;;11.80;99.90;;;;;;5059870;28;20048;-75
2022/11/14 09:48:11;;;;;;;64.22;21.02;;;11.80;99.90;;;;;;5074789;28;20052;-75
2022/11/14 09:51:12;;;;;;;65.85;21.63;;;11.90;99.90;;;;;;5073882;28;20040;-74
2022/11/14 09:54:23;;;;;;;48.53;19.15;;;11.90;99.90;;;;;;5074325;28;20045;-72
2022/11/14 09:57:18;;;;;;;64.78;20.60;;;12.00;99.90;;;;;;5055238;28;20055;-71
2022/11/14 10:00:21;;;;;;;53.08;20.45;;;12.10;99.90;;;;;;5074910;28;20048;-73
2022/11/14 10:03:28;;;;;;;57.83;21.02;;;12.10;99.90;;;;;;5073840;28;20036;-72
2022/11/14 10:06:59;;;;;;;53.63;20.13;;;12.20;99.90;;;;;;5075291;28;20434;-73
2022/11/14 10:10:03;;;;;;;47.65;20.00;;;12.30;99.90;;;;;;5073607;28;20048;-74
2022/11/14 10:13:20;;;;;;;48.15;19.40;;;13.30;99.90;;;;;;5056742;28;20051;-71
2022/11/14 10:16:17;;;;;;;46.08;17.80;;;12.50;99.90;;;;;;5073481;28;20041;-73
2022/11/14 10:19:19;;;;;;;40.95;18.13;;;12.60;99.90;;;;;;5075116;28;20055;-73
2022/11/14 10:22:39;;;;;;;39.42;18.42;;;12.70;99.90;;;;;;5073657;28;20451;-73
2022/11/14 10:25:36;;;;;;;34.22;16.77;;;12.80;99.90;;;;;;5074538;28;20380;-73
2022/11/14 10:28:45;;;;;;;34.03;17.33;;;12.90;99.90;;;;;;5056318;28;20044;-74
2022/11/14 10:31:52;;;;;;;28.40;15.52;;;13.00;99.90;;;;;;5074438;28;20344;-73
2022/11/14 10:34:53;;;;;;;31.30;16.40;;;13.00;99.90;;;;;;5074591;28;20486;-72
2022/11/14 10:37:48;;;;;;;28.05;15.52;;;13.20;99.90;;;;;;5073439;28;20490;-73
2022/11/14 10:40:45;;;;;;;31.30;16.02;;;13.20;99.90;;;;;;5074542;28;20049;-72
2022/11/14 10:43:40;;;;;;;28.43;15.33;;;13.30;99.90;;;;;;5074707;28;20071;-73
2022/11/14 10:46:32;;;;;;;28.83;14.68;;;13.40;99.90;;;;;;5078589;28;20037;-71
2022/11/14 10:49:21;;;;;;;23.73;14.45;;;13.40;99.90;;;;;;5077423;28;20049;-75
2022/11/14 10:52:18;;;;;;;27.70;14.45;;;13.40;99.90;;;;;;5064142;28;20055;-72
2022/11/14 10:55:14;;;;;;;24.33;14.15;;;13.40;99.90;;;;;;5078640;28;20085;-72
2022/11/14 10:58:00;;;;;;;24.73;14.55;;;13.50;99.90;;;;;;5078216;28;20036;-71
2022/11/14 11:00:46;;;;;;;27.25;14.10;;;13.50;99.90;;;;;;5061231;28;20048;-75
2022/11/14 11:03:43;;;;;;;24.42;13.75;;;13.60;99.90;;;;;;5075958;28;20363;-71
2022/11/14 11:06:29;;;;;;;25.67;14.77;;;13.60;99.90;;;;;;5077710;28;20040;-71
2022/11/14 11:12:40;;;;;;;22.92;13.88;;;13.60;99.90;;;;;;5060342;28;20479;-71
2022/11/14 11:15:30;;;;;;;25.50;13.80;;;13.60;99.90;;;;;;5077818;28;20040;-73
2022/11/14 11:18:30;;;;;;;24.55;14.88;;;13.60;99.90;;;;;;5077537;28;20491;-75
2022/11/14 11:21:21;;;;;;;24.10;14.20;;;13.60;99.90;;;;;;5077728;28;20455;-73
2022/11/14 11:24:08;;;;;;;21.48;13.85;;;13.70;99.90;;;;;;5057415;28;20048;-75
2022/11/14 11:27:26;;;;;;;24.02;14.57;;;13.70;99.90;;;;;;5043313;28;20041;-75
2022/11/14 11:30:12;;;;;;;26.98;14.45;;;13.60;99.90;;;;;;5039052;28;20068;-74
2022/11/14 11:33:16;;;;;;;24.05;14.65;;;13.60;99.90;;;;;;5057872;28;20456;-72
2022/11/14 11:36:14;;;;;;;29.52;15.18;;;13.50;99.90;;;;;;5056584;28;20049;-75
2022/11/14 11:39:01;;;;;;;26.35;15.93;;;13.50;99.90;;;;;;5040193;28;20068;-74
2022/11/14 11:41:49;;;;;;;26.08;15.32;;;13.50;99.90;;;;;;5058478;28;20412;-74
2022/11/14 11:45:01;;;;;;;25.20;15.20;;;13.60;99.90;;;;;;5057392;28;20044;-74
2022/11/14 11:47:53;;;;;;;23.02;15.55;;;13.70;99.90;;;;;;5058133;28;20060;-74
2022/11/14 11:50:40;;;;;;;26.85;15.65;;;13.80;99.90;;;;;;5056485;28;20049;-74
2022/11/14 11:53:35;;;;;;;26.63;16.13;;;13.90;99.90;;;;;;5057362;28;20049;-77
2022/11/14 11:56:25;;;;;;;27.88;16.70;;;14.10;99.90;;;;;;5056129;28;20056;-73
2022/11/14 11:59:57;;;;;;;32.90;18.02;;;14.30;99.90;;;;;;5057604;28;20467;-73
2022/11/14 12:02:49;;;;;;;27.85;18.20;;;14.50;99.90;;;;;;4995863;28;20386;-74
2022/11/14 12:05:57;;;;;;;25.85;16.45;;;14.60;99.90;;;;;;5057658;28;20048;-73
2022/11/14 12:08:57;;;;;;;23.48;16.27;;;14.60;99.90;;;;;;5039877;28;20045;-74
2022/11/14 12:11:50;;;;;;;20.90;15.25;;;14.70;99.90;;;;;;5057593;28;20037;-73
2022/11/14 12:15:20;;;;;;;23.05;15.25;;;14.70;99.90;;;;;;5057258;28;20056;-73
2022/11/14 12:18:29;;;;;;;25.40;15.43;;;14.80;99.90;;;;;;5042150;28;20037;-74
2022/11/14 12:21:21;;;;;;;26.05;15.05;;;14.80;99.90;;;;;;5074967;28;20040;-75
2022/11/14 12:24:15;;;;;;;24.67;16.25;;;14.80;99.90;;;;;;5075664;28;20119;-74
2022/11/14 12:27:29;;;;;;;25.02;17.33;;;14.80;99.90;;;;;;5053570;28;20055;-73
2022/11/14 12:30:23;;;;;;;29.08;17.25;;;14.70;99.90;;;;;;5075012;28;20459;-73
2022/11/14 12:33:17;;;;;;;28.10;18.40;;;14.70;99.90;;;;;;5072982;28;20036;-73
2022/11/14 12:36:08;;;;;;;27.70;17.85;;;14.80;99.90;;;;;;5072963;28;20036;-73
2022/11/14 12:38:55;;;;;;;29.73;18.02;;;14.80;99.90;;;;;;5076420;28;20352;-73
2022/11/14 12:41:41;;;;;;;30.63;19.70;;;14.70;99.90;;;;;;5061676;28;20045;-73
2022/11/14 12:44:28;;;;;;;28.33;19.08;;;14.70;99.90;;;;;;5060698;28;20040;-73
2022/11/14 12:47:20;;;;;;;30.98;18.65;;;14.70;99.90;;;;;;5075960;28;20048;-73
2022/11/14 12:50:27;;;;;;;29.55;19.05;;;14.70;99.90;;;;;;5059253;28;20048;-76
2022/11/14 12:53:36;;;;;;;26.95;18.48;;;14.70;99.90;;;;;;5061442;28;20032;-75
2022/11/14 12:56:23;;;;;;;25.55;17.50;;;14.70;99.90;;;;;;5075037;28;20048;-74
2022/11/14 12:59:38;;;;;;;30.67;19.23;;;14.80;99.90;;;;;;5061684;28;20048;-74
2022/11/14 13:02:57;;;;;;;25.50;17.50;;;14.70;99.90;;;;;;5054390;28;20323;-74
2022/11/14 13:06:09;;;;;;;29.15;19.95;;;14.80;99.90;;;;;;5037598;28;20053;-73
2022/11/14 13:09:17;;;;;;;31.67;19.58;;;14.70;99.90;;;;;;5048628;28;20040;-73
2022/11/14 13:22:36;;;;;;;31.38;19.35;;;15.10;99.90;;;;;;5073972;28;20040;-73
2022/11/14 13:25:23;;;;;;;35.92;19.77;;;15.20;99.90;;;;;;5072994;28;20044;-74
2022/11/14 13:28:40;;;;;;;29.52;19.77;;;15.20;99.90;;;;;;5073928;28;20040;-73
2022/11/14 13:31:35;;;;;;;29.20;20.08;;;15.30;99.90;;;;;;5058616;28;20040;-72
2022/11/14 13:34:48;;;;;;;32.80;21.20;;;15.20;99.90;;;;;;5072542;28;20045;-74
2022/11/14 13:38:05;;;;;;;35.08;21.85;;;15.10;99.90;;;;;;5073184;28;20375;-74
2022/11/14 13:41:40;;;;;;;34.58;23.35;;;15.10;99.90;;;;;;5081271;28;20367;-73
2022/11/14 13:44:50;;;;;;;39.10;23.02;;;15.10;99.90;;;;;;4995660;28;20405;-73
2022/11/14 13:48:10;;;;;;;31.08;21.90;;;15.20;99.90;;;;;;4993442;28;20054;-74
2022/11/14 13:51:05;;;;;;;32.53;22.42;;;15.20;99.90;;;;;;5074237;28;20056;-73
2022/11/14 13:54:14;;;;;;;41.75;22.67;;;15.00;99.90;;;;;;5038048;28;20056;-74
2022/11/14 13:57:17;;;;;;;36.63;23.52;;;14.90;99.90;;;;;;5054188;28;20460;-73
2022/11/14 14:00:17;;;;;;;35.22;23.27;;;14.70;99.90;;;;;;5054853;28;20041;-74
2022/11/14 14:03:25;;;;;;;38.53;22.48;;;14.70;99.90;;;;;;5054052;28;20041;-74
2022/11/14 14:06:33;;;;;;;35.55;23.20;;;14.50;99.90;;;;;;5022943;28;20384;-73
2022/11/14 14:09:19;;;;;;;;;;;14.40;99.90;;;;;;5036897;28;20045;-74
2022/11/14 14:12:31;;;;;;;37.75;24.25;;;14.30;99.90;;;;;;5054904;28;19921;-74
2022/11/14 14:15:31;;;;;;;44.55;25.10;;;14.30;99.90;;;;;;5040362;28;20044;-74
2022/11/14 14:18:20;;;;;;;44.45;26.60;;;14.20;99.90;;;;;;5040061;28;20052;-74
2022/11/14 14:21:16;;;;;;;44.20;26.50;;;14.10;99.90;;;;;;5037182;28;20068;-75
2022/11/14 14:24:33;;;;;;;48.42;27.67;;;14.20;99.90;;;;;;5053547;28;20041;-73
2022/11/14 14:28:02;;;;;;;45.07;28.00;;;14.20;99.90;;;;;;5055048;28;20048;-76
2022/11/14 14:31:10;;;;;;;43.47;27.90;;;14.30;99.90;;;;;;5053260;28;20060;-75
2022/11/14 14:33:56;;;;;;;45.70;27.98;;;14.40;99.90;;;;;;5054447;28;20064;-74
2022/11/14 14:36:49;;;;;;;49.47;31.05;;;14.40;99.90;;;;;;5035422;28;20468;-76
2022/11/14 14:39:35;;;;;;;49.90;29.73;;;14.40;99.90;;;;;;5054383;28;20460;-75
2022/11/14 14:42:21;;;;;;;55.75;30.88;;;14.40;99.90;;;;;;5053848;28;20045;-75